Time;durP1;ratioP1;P1;durP2;ratioP2;P2;SDS_P1;SDS_P2;PMS_P1;PMS_P2;Temp;Humidity;BMP_temperature;BMP_pressure;BME280_temperature;BME280_humidity;BME280_pressure;Samples;Min_cycle;Max_cycle;Signal;HPM_P1;HPM_P2
2022/07/29 00:01:52;;;;;;;14.43;10.90;;;21.70;99.90;;;22.10;66.01;95132.53;5045615;28;20633;-59
2022/07/29 00:04:19;;;;;;;14.80;11.40;;;21.60;99.90;;;22.10;66.00;95134.38;5045759;28;21023;-61
2022/07/29 00:06:46;;;;;;;11.77;10.57;;;21.60;99.90;;;22.09;65.61;95141.59;5045499;28;20996;-61
2022/07/29 00:09:15;;;;;;;10.47;9.47;;;21.60;99.90;;;22.09;65.96;95133.56;5045558;28;20978;-62
2022/07/29 00:11:42;;;;;;;10.67;9.57;;;21.60;99.90;;;22.10;65.58;95134.38;5045444;28;21088;-61
2022/07/29 00:14:09;;;;;;;10.33;9.33;;;21.60;99.90;;;22.09;65.59;95127.38;5046217;28;20460;-59
2022/07/29 00:16:37;;;;;;;11.57;9.50;;;21.60;99.90;;;22.08;65.34;95126.56;5045225;28;20529;-58
2022/07/29 00:19:04;;;;;;;13.37;9.50;;;21.60;99.90;;;22.07;65.51;95127.56;5045411;28;20518;-58
2022/07/29 00:21:31;;;;;;;10.50;9.50;;;21.60;99.70;;;22.05;65.63;95120.78;5045440;28;20537;-58
2022/07/29 00:23:58;;;;;;;10.33;9.37;;;21.60;99.80;;;22.03;65.47;95132.53;5041496;28;20462;-58
2022/07/29 00:26:31;;;;;;;11.40;10.20;;;21.60;99.90;;;22.01;65.42;95139.09;5045158;28;21015;-61
2022/07/29 00:28:59;;;;;;;16.07;10.13;;;21.50;99.90;;;21.99;66.50;95138.50;5045818;28;20446;-58
2022/07/29 00:31:26;;;;;;;16.90;9.47;;;21.50;99.90;;;21.96;66.23;95141.59;5045740;28;20464;-58
2022/07/29 00:33:53;;;;;;;10.60;9.60;;;21.50;99.90;;;21.92;66.11;95145.69;5045535;28;20462;-59
2022/07/29 00:36:20;;;;;;;14.40;9.67;;;21.50;99.90;;;21.83;66.14;95148.56;5045131;28;20468;-60
2022/07/29 00:38:47;;;;;;;14.27;10.20;;;21.40;99.90;;;21.76;66.53;95147.72;5045576;28;20897;-61
2022/07/29 00:41:15;;;;;;;15.00;11.47;;;21.40;99.90;;;21.70;66.51;95150.38;5042759;28;20545;-61
2022/07/29 00:43:43;;;;;;;11.80;10.40;;;21.30;99.90;;;21.61;66.27;95139.88;5045109;28;21030;-61
2022/07/29 00:46:10;;;;;;;16.50;10.30;;;21.20;99.90;;;21.54;66.60;95140.88;5047122;28;20521;-58
2022/07/29 00:48:38;;;;;;;13.27;10.97;;;21.10;99.90;;;21.49;66.43;95138.81;5049288;28;20517;-63
2022/07/29 00:51:07;;;;;;;12.17;10.93;;;21.10;99.90;;;21.45;66.67;95149.03;5049204;28;21010;-59
2022/07/29 00:53:34;;;;;;;12.27;9.70;;;21.00;99.90;;;21.42;66.68;95137.91;5049304;28;20451;-62
2022/07/29 00:56:01;;;;;;;11.40;10.30;;;21.00;99.90;;;21.37;66.70;95138.53;5048355;28;20463;-58
2022/07/29 00:58:28;;;;;;;13.33;10.93;;;20.90;99.90;;;21.33;66.77;95139.13;5048952;28;20455;-57
2022/07/29 01:00:57;;;;;;;13.63;10.87;;;20.90;99.90;;;21.28;66.98;95137.84;5048345;28;20483;-57
2022/07/29 01:03:24;;;;;;;13.97;11.10;;;20.80;99.90;;;21.27;66.98;95130.03;5048625;28;20448;-61
2022/07/29 01:05:51;;;;;;;14.33;9.87;;;20.80;99.90;;;21.22;66.86;95124.47;5048441;28;20495;-60
2022/07/29 01:08:19;;;;;;;17.40;11.30;;;20.80;99.90;;;21.20;67.08;95118.50;5048708;28;20812;-60
2022/07/29 01:10:46;;;;;;;13.10;11.00;;;20.70;99.90;;;21.16;67.12;95107.34;5049058;28;20502;-57
2022/07/29 01:13:13;;;;;;;14.50;9.87;;;20.70;99.90;;;21.13;67.03;95108.59;5048516;28;21014;-58
2022/07/29 01:15:44;;;;;;;14.20;11.50;;;20.70;99.90;;;21.11;67.21;95113.31;5048466;28;20467;-61
2022/07/29 01:18:19;;;;;;;13.60;11.63;;;20.70;99.90;;;21.10;67.27;95114.34;5048593;28;20879;-62
2022/07/29 01:21:28;;;;;;;18.53;11.87;;;20.60;99.90;;;21.07;67.97;95109.41;5048589;28;20552;-60
2022/07/29 01:24:21;;;;;;;16.53;10.50;;;20.60;99.90;;;21.02;68.39;95105.66;5045176;28;20514;-61
2022/07/29 01:26:50;;;;;;;14.50;12.60;;;20.60;99.90;;;21.02;67.55;95103.81;5036438;28;20487;-57
2022/07/29 01:29:24;;;;;;;18.23;12.33;;;20.60;99.90;;;20.98;67.22;95094.53;5048414;28;20463;-61
2022/07/29 01:31:56;;;;;;;13.73;11.30;;;20.50;99.90;;;20.93;67.80;95089.78;5048227;28;20487;-58
2022/07/29 01:34:28;;;;;;;13.77;12.40;;;20.50;99.90;;;20.93;67.92;95091.66;5048382;28;20451;-57
2022/07/29 01:37:01;;;;;;;21.23;12.20;;;20.50;99.90;;;20.90;67.81;95094.72;5048440;28;20901;-57
2022/07/29 01:39:31;;;;;;;14.63;12.00;;;20.50;99.90;;;20.88;67.35;95102.09;5048703;28;20452;-61
2022/07/29 01:42:00;;;;;;;14.50;12.77;;;20.40;99.90;;;20.86;67.86;95096.94;5048707;28;20577;-59
2022/07/29 01:44:32;;;;;;;14.80;12.10;;;20.40;99.90;;;20.87;68.15;95097.78;5046497;28;20486;-58
2022/07/29 01:47:05;;;;;;;14.00;10.70;;;20.40;99.90;;;20.88;68.08;95102.09;5047944;28;20476;-60
2022/07/29 01:49:36;;;;;;;16.83;12.17;;;20.40;99.90;;;20.88;67.97;95089.56;5048406;28;20962;-59
2022/07/29 01:52:06;;;;;;;12.83;11.57;;;20.40;99.90;;;20.90;68.61;95092.84;5048202;28;20467;-61
2022/07/29 01:54:38;;;;;;;13.70;11.50;;;20.50;99.90;;;20.93;68.50;95097.00;5047740;28;20452;-61
2022/07/29 01:57:05;;;;;;;16.33;12.30;;;20.50;99.90;;;20.94;68.62;95087.94;5047571;28;20902;-58
2022/07/29 01:59:34;;;;;;;15.93;11.90;;;20.50;99.90;;;20.92;68.32;95095.34;5047749;28;20452;-61
2022/07/29 02:02:01;;;;;;;13.53;12.10;;;20.50;99.90;;;20.88;68.02;95091.41;5047529;28;20495;-59
2022/07/29 02:04:29;;;;;;;16.90;12.40;;;20.50;99.90;;;20.85;68.60;95089.97;5047954;28;20744;-59
2022/07/29 02:06:58;;;;;;;15.10;13.03;;;20.40;99.90;;;20.84;68.51;95087.50;5047568;28;20475;-59
2022/07/29 02:09:25;;;;;;;19.87;12.10;;;20.40;99.90;;;20.83;68.62;95081.28;5047662;28;20506;-58
2022/07/29 02:11:55;;;;;;;12.97;11.00;;;20.40;99.90;;;20.80;68.63;95081.69;5047627;28;20839;-61
2022/07/29 02:14:24;;;;;;;14.67;12.17;;;20.40;99.90;;;20.76;68.75;95078.59;5047502;28;20463;-59
2022/07/29 02:16:54;;;;;;;13.93;11.30;;;20.40;99.90;;;20.74;68.66;95077.97;5046741;28;20480;-59
2022/07/29 02:19:23;;;;;;;18.80;12.30;;;20.30;99.90;;;20.75;69.24;95082.28;5044845;28;20448;-61
2022/07/29 02:21:50;;;;;;;16.17;11.83;;;20.30;99.90;;;20.80;69.45;95084.38;5047290;28;20507;-58
2022/07/29 02:24:17;;;;;;;20.53;12.03;;;20.30;99.90;;;20.84;69.59;95074.13;5047106;28;20451;-61
2022/07/29 02:26:44;;;;;;;19.07;10.83;;;20.40;99.90;;;20.89;69.22;95083.19;5043417;28;20996;-57
2022/07/29 02:29:12;;;;;;;16.10;11.17;;;20.40;99.90;;;20.92;68.76;95084.63;5047107;28;20514;-61
2022/07/29 02:31:40;;;;;;;14.93;10.60;;;20.50;99.90;;;20.91;68.48;95062.44;5047537;28;20511;-61
2022/07/29 02:34:09;;;;;;;14.03;11.13;;;20.50;99.90;;;20.90;68.99;95062.63;5047248;28;20490;-61
2022/07/29 02:36:37;;;;;;;17.17;11.67;;;20.50;99.90;;;20.89;68.81;95064.47;5046942;28;20545;-61
2022/07/29 02:39:04;;;;;;;11.80;10.40;;;20.50;99.90;;;20.87;68.73;95066.53;5047091;28;20459;-59
2022/07/29 02:41:47;;;;;;;14.47;11.90;;;20.40;99.90;;;20.87;69.04;95077.22;5046881;28;20464;-58
2022/07/29 02:44:15;;;;;;;15.63;11.63;;;20.40;99.90;;;20.89;69.69;95074.34;5043211;28;20436;-61
2022/07/29 02:46:47;;;;;;;13.37;10.30;;;20.40;99.90;;;20.93;69.15;95070.25;5046963;28;20583;-61
2022/07/29 02:49:19;;;;;;;12.53;10.10;;;20.50;99.90;;;20.95;69.38;95058.31;5046905;28;20534;-60
2022/07/29 02:51:50;;;;;;;12.57;11.37;;;20.50;99.90;;;20.98;69.03;95065.13;5046731;28;20474;-60
2022/07/29 02:54:26;;;;;;;18.43;12.20;;;20.50;99.90;;;21.03;69.29;95056.50;5044952;28;20513;-61
2022/07/29 02:56:55;;;;;;;11.90;10.70;;;20.60;99.90;;;21.06;69.24;95067.63;5046905;28;20598;-61
2022/07/29 02:59:26;;;;;;;20.80;11.80;;;20.60;99.90;;;21.08;69.09;95062.88;5046745;28;20455;-58
2022/07/29 03:01:54;;;;;;;14.13;11.90;;;20.60;99.90;;;21.10;68.85;95060.84;5046497;28;20626;-58
2022/07/29 03:04:22;;;;;;;14.53;12.30;;;20.70;99.90;;;21.11;69.00;95067.00;5046830;28;20456;-60
2022/07/29 03:06:50;;;;;;;17.40;11.97;;;20.70;99.90;;;21.11;68.78;95062.47;5046321;28;20475;-58
2022/07/29 03:09:18;;;;;;;20.13;12.60;;;20.70;99.90;;;21.10;68.78;95068.88;5042537;28;20513;-56
2022/07/29 03:11:45;;;;;;;15.90;11.77;;;20.70;99.90;;;21.10;68.81;95070.69;5046105;28;20472;-61
2022/07/29 03:14:13;;;;;;;16.77;12.87;;;20.60;99.90;;;21.07;68.71;95069.28;5046620;28;20456;-61
2022/07/29 03:16:40;;;;;;;16.37;12.80;;;20.70;99.90;;;21.06;68.65;95072.16;5045831;28;21030;-61
2022/07/29 03:19:07;;;;;;;17.63;13.27;;;20.60;99.90;;;21.05;68.95;95074.00;5042869;28;20452;-61
2022/07/29 03:21:36;;;;;;;18.47;13.97;;;20.60;99.90;;;21.06;69.04;95067.63;5046156;28;20472;-61
2022/07/29 03:24:03;;;;;;;14.70;13.17;;;20.60;99.90;;;21.07;69.04;95069.28;5042012;28;20448;-60
2022/07/29 03:26:30;;;;;;;17.23;13.10;;;20.60;99.90;;;21.09;68.97;95075.25;5045948;28;21063;-63
2022/07/29 03:28:57;;;;;;;14.90;13.30;;;20.60;99.90;;;21.12;69.11;95074.84;5046384;28;20556;-60
2022/07/29 03:31:25;;;;;;;17.90;12.97;;;20.70;99.90;;;21.17;68.94;95076.91;5046231;28;20468;-59
2022/07/29 03:33:52;;;;;;;16.70;13.30;;;20.70;99.90;;;21.19;68.71;95069.50;5046327;28;20517;-59
2022/07/29 03:36:20;;;;;;;20.33;12.27;;;20.70;99.90;;;21.21;68.83;95082.69;5045688;28;20541;-60
2022/07/29 03:38:49;;;;;;;18.63;12.90;;;20.70;99.90;;;21.23;68.95;95088.66;5046198;28;20452;-59
2022/07/29 03:41:16;;;;;;;14.07;11.00;;;20.70;99.90;;;21.21;68.71;95080.00;5045912;28;21027;-58
2022/07/29 03:43:43;;;;;;;25.80;12.47;;;20.70;99.90;;;21.24;68.50;95083.13;5046057;28;20946;-63
2022/07/29 03:46:11;;;;;;;15.53;12.40;;;20.80;99.90;;;21.25;68.13;95084.75;5043774;28;20513;-58
2022/07/29 03:48:40;;;;;;;21.37;13.50;;;20.80;99.90;;;21.27;68.51;95085.41;5045925;28;20525;-63
2022/07/29 03:51:07;;;;;;;19.23;12.13;;;20.80;99.90;;;21.29;68.60;95087.88;5046122;28;20483;-62
2022/07/29 03:53:36;;;;;;;17.37;12.80;;;20.80;99.90;;;21.31;68.45;95091.97;5041124;28;20518;-60
2022/07/29 03:56:05;;;;;;;16.70;12.73;;;20.90;99.90;;;21.36;68.24;95091.38;5045903;28;20460;-59
2022/07/29 03:58:32;;;;;;;15.77;11.73;;;20.90;99.90;;;21.40;68.29;95087.28;5045416;28;20451;-62
2022/07/29 04:01:00;;;;;;;19.30;12.13;;;20.90;99.90;;;21.43;68.14;95089.53;5045496;28;20920;-59
2022/07/29 04:03:27;;;;;;;18.20;12.80;;;21.00;99.90;;;21.47;68.32;95092.63;5044527;28;20487;-60
2022/07/29 04:06:02;;;;;;;22.13;12.20;;;21.00;99.90;;;21.50;68.54;95089.59;5045436;28;20479;-59
2022/07/29 04:08:29;;;;;;;13.73;12.27;;;21.00;99.90;;;21.55;68.08;95088.97;5043412;28;20504;-61
2022/07/29 04:10:56;;;;;;;13.97;12.47;;;21.10;99.90;;;21.60;67.81;95091.88;5045771;28;20471;-62
2022/07/29 04:13:25;;;;;;;14.63;11.70;;;21.10;99.90;;;21.65;67.83;95090.22;5045472;28;20452;-61
2022/07/29 04:15:52;;;;;;;17.83;12.60;;;21.20;99.90;;;21.70;68.19;95086.94;5045781;28;21000;-60
2022/07/29 04:18:19;;;;;;;15.63;12.20;;;21.20;99.90;;;21.73;67.46;95086.53;5042266;28;21299;-57
2022/07/29 04:20:46;;;;;;;13.73;12.30;;;21.30;99.90;;;21.75;67.39;95084.50;5049967;28;20455;-59
2022/07/29 04:23:13;;;;;;;15.83;12.20;;;21.30;99.90;;;21.79;67.44;95082.22;5049196;28;20533;-59
2022/07/29 04:25:41;;;;;;;14.43;12.13;;;21.30;99.90;;;21.82;67.49;95090.66;5049469;28;20455;-58
2022/07/29 04:28:09;;;;;;;16.37;12.27;;;21.30;99.90;;;21.87;67.42;95095.41;5049775;28;20448;-59
2022/07/29 04:30:38;;;;;;;14.37;11.90;;;21.40;99.90;;;21.91;67.16;95099.34;5049101;28;20948;-58
2022/07/29 04:33:06;;;;;;;18.90;12.87;;;21.40;99.90;;;21.97;67.19;95098.53;5047751;28;20447;-62
2022/07/29 04:35:36;;;;;;;12.97;11.50;;;21.50;99.90;;;22.02;67.16;95096.03;5049094;28;21014;-62
2022/07/29 04:38:03;;;;;;;22.90;11.93;;;21.50;99.90;;;22.08;66.87;95102.44;5046964;28;21073;-58
2022/07/29 04:40:32;;;;;;;22.13;12.57;;;21.60;99.90;;;22.10;66.67;95092.34;5049101;28;20448;-61
2022/07/29 04:43:00;;;;;;;18.87;12.47;;;21.60;99.90;;;22.13;66.33;95108.00;5048828;28;21058;-61
2022/07/29 04:45:28;;;;;;;18.00;11.90;;;21.70;99.90;;;22.15;66.76;95108.63;5046118;28;20459;-59
2022/07/29 04:47:56;;;;;;;15.80;13.20;;;21.70;99.90;;;22.17;66.51;95113.78;5048619;28;20455;-60
2022/07/29 04:50:24;;;;;;;16.07;12.50;;;21.70;99.90;;;22.18;66.58;95118.94;5048680;28;20468;-60
2022/07/29 04:52:51;;;;;;;14.23;12.20;;;21.70;99.90;;;22.20;66.55;95119.56;5047924;28;20471;-61
2022/07/29 04:55:18;;;;;;;13.73;11.47;;;21.70;99.90;;;22.22;66.40;95115.84;5049172;28;20448;-61
2022/07/29 04:57:45;;;;;;;15.70;13.20;;;21.70;99.90;;;22.24;66.69;95109.22;5048525;28;20952;-58
2022/07/29 05:00:14;;;;;;;15.87;12.40;;;21.80;99.90;;;22.25;66.17;95110.06;5048931;28;21018;-58
2022/07/29 05:02:42;;;;;;;16.43;12.83;;;21.80;99.90;;;22.26;66.23;95114.38;5047778;28;20530;-61
2022/07/29 05:05:10;;;;;;;16.87;12.50;;;21.80;99.90;;;22.27;66.01;95113.38;5048160;28;20878;-58
2022/07/29 05:07:37;;;;;;;20.57;12.73;;;21.80;99.90;;;22.28;66.26;95115.03;5048438;28;20467;-61
2022/07/29 05:10:06;;;;;;;17.13;14.00;;;21.80;99.90;;;22.31;66.06;95117.31;5047504;28;20961;-58
2022/07/29 05:12:33;;;;;;;16.43;14.63;;;21.80;99.90;;;22.35;66.01;95115.84;5046572;28;20967;-62
2022/07/29 05:15:01;;;;;;;24.17;15.30;;;21.90;99.90;;;22.38;65.72;95121.66;5046269;28;20889;-59
2022/07/29 05:17:28;;;;;;;18.90;14.77;;;21.90;99.90;;;22.42;66.15;95111.31;5043456;28;20477;-60
2022/07/29 05:19:55;;;;;;;19.43;15.40;;;21.90;99.90;;;22.46;65.88;95111.72;5046738;28;20452;-59
2022/07/29 05:22:24;;;;;;;16.53;14.50;;;21.90;99.90;;;22.47;65.61;95114.19;5045435;28;20471;-60
2022/07/29 05:24:51;;;;;;;21.50;14.80;;;22.00;99.90;;;22.52;65.87;95117.06;5046678;28;20464;-62
2022/07/29 05:27:18;;;;;;;18.57;14.23;;;22.00;99.90;;;22.61;65.93;95122.22;5048618;28;20848;-61
2022/07/29 05:29:45;;;;;;;16.53;13.20;;;22.10;99.90;;;22.68;65.63;95118.50;5047918;28;20459;-57
2022/07/29 05:32:13;;;;;;;21.10;14.23;;;22.10;99.90;;;22.79;65.04;95127.78;5043113;28;20464;-59
2022/07/29 05:34:40;;;;;;;22.63;15.73;;;22.30;99.90;;;22.88;65.17;95120.31;5047947;28;20525;-58
2022/07/29 05:37:07;;;;;;;19.63;15.03;;;22.30;99.90;;;22.97;64.79;95127.09;5048163;28;20503;-60
2022/07/29 05:39:36;;;;;;;19.60;14.30;;;22.40;99.90;;;23.03;65.09;95117.38;5048127;28;20460;-61
2022/07/29 05:42:03;;;;;;;19.77;15.00;;;22.50;99.90;;;23.12;65.13;95121.50;5047885;28;21004;-62
2022/07/29 05:44:30;;;;;;;19.20;14.40;;;22.60;99.90;;;23.27;64.80;95121.25;5044931;28;20549;-57
2022/07/29 05:46:58;;;;;;;20.50;14.30;;;22.70;99.90;;;23.37;64.15;95131.53;5047952;28;20571;-59
2022/07/29 05:49:25;;;;;;;18.10;15.30;;;22.80;99.90;;;23.45;63.61;95132.13;5047467;28;20451;-58
2022/07/29 05:51:52;;;;;;;22.93;15.27;;;22.90;99.80;;;23.60;64.15;95131.81;5047489;28;20464;-62
2022/07/29 05:54:19;;;;;;;24.73;16.70;;;23.00;99.70;;;23.84;63.79;95128.59;5047966;28;20505;-61
2022/07/29 05:56:48;;;;;;;28.90;17.23;;;23.20;99.70;;;24.07;62.91;95138.81;5047616;28;21055;-62
2022/07/29 05:59:15;;;;;;;30.23;20.37;;;23.40;99.50;;;24.32;63.05;95130.75;5047856;28;20454;-62
2022/07/29 06:01:42;;;;;;;23.67;15.43;;;23.60;99.20;;;24.56;62.10;95125.59;5047282;28;20541;-57
2022/07/29 06:04:10;;;;;;;22.40;16.80;;;23.90;98.70;;;24.77;61.78;95129.75;5046484;28;20544;-56
2022/07/29 06:06:37;;;;;;;32.70;19.00;;;24.10;98.50;;;25.02;61.55;95130.53;5047271;28;20475;-62
2022/07/29 06:09:04;;;;;;;37.63;20.03;;;24.30;98.30;;;25.23;61.03;95136.53;5047485;28;20935;-63
2022/07/29 06:11:31;;;;;;;23.90;17.60;;;24.50;97.90;;;25.37;60.18;95129.94;5047328;28;20532;-59
2022/07/29 06:14:00;;;;;;;29.90;17.93;;;24.70;97.60;;;25.58;59.95;95138.63;5047398;28;21005;-59
2022/07/29 06:16:27;;;;;;;19.27;16.10;;;24.90;97.10;;;25.73;59.25;95132.81;5047008;28;20500;-62
2022/07/29 06:18:55;;;;;;;29.27;16.90;;;25.10;96.80;;;25.90;58.64;95138.38;5044343;28;20455;-62
2022/07/29 06:21:22;;;;;;;24.53;16.20;;;25.20;96.40;;;26.10;58.57;95136.25;5046737;28;20471;-60
2022/07/29 06:23:49;;;;;;;22.60;15.60;;;25.40;96.40;;;26.33;58.22;95139.22;5047303;28;20494;-60
2022/07/29 06:26:17;;;;;;;20.07;15.93;;;25.60;95.80;;;26.54;57.47;95140.53;5047579;28;20471;-60
2022/07/29 06:28:44;;;;;;;25.60;15.80;;;25.80;95.30;;;26.69;57.10;95126.63;5047484;28;20455;-57
2022/07/29 06:31:13;;;;;;;23.60;17.40;;;26.00;94.80;;;26.81;56.79;95130.94;5047146;28;20494;-58
2022/07/29 06:33:40;;;;;;;23.67;16.87;;;26.10;94.40;;;26.92;56.24;95132.00;5043020;28;20501;-58
2022/07/29 06:36:08;;;;;;;22.90;15.43;;;26.30;94.20;;;27.06;56.07;95135.28;5046433;28;20463;-57
2022/07/29 06:38:35;;;;;;;20.47;15.80;;;26.40;94.00;;;27.27;55.83;95133.84;5046973;28;20501;-62
2022/07/29 06:41:03;;;;;;;22.20;16.70;;;26.60;93.80;;;27.48;55.78;95129.72;5046641;28;20479;-61
2022/07/29 06:43:37;;;;;;;23.73;16.00;;;26.70;93.50;;;27.68;55.16;95128.47;5044982;28;21054;-58
2022/07/29 06:46:06;;;;;;;19.37;15.20;;;26.90;93.20;;;27.88;54.60;95120.72;5043088;28;20467;-63
2022/07/29 06:48:35;;;;;;;20.00;15.53;;;27.10;92.90;;;28.14;54.34;95126.63;5047188;28;20857;-64
2022/07/29 06:51:03;;;;;;;23.97;15.33;;;27.40;92.40;;;28.37;54.05;95130.25;5044505;28;20491;-58
2022/07/29 06:53:31;;;;;;;20.13;16.47;;;27.60;91.80;;;28.59;52.71;95117.66;5046686;28;20482;-59
2022/07/29 06:55:59;;;;;;;18.60;15.27;;;27.80;91.30;;;28.75;53.02;95112.47;5046341;28;20482;-60
2022/07/29 06:58:26;;;;;;;18.70;14.47;;;28.00;90.90;;;28.88;52.03;95122.16;5042050;28;20451;-58
2022/07/29 07:00:53;;;;;;;18.40;12.90;;;28.20;90.30;;;28.94;51.91;95113.84;5045831;28;21065;-61
2022/07/29 07:03:21;;;;;;;14.07;10.67;;;28.30;90.20;;;29.08;52.32;95116.16;5045018;28;20922;-62
2022/07/29 07:05:50;;;;;;;16.43;11.23;;;28.30;89.60;;;29.22;50.96;95120.19;5045925;28;20478;-59
2022/07/29 07:08:17;;;;;;;19.70;9.50;;;28.50;87.90;;;29.38;51.43;95112.28;5046239;28;20960;-58
2022/07/29 07:10:44;;;;;;;17.80;10.83;;;28.70;87.60;;;29.54;50.41;95114.06;5045949;28;20486;-59
2022/07/29 07:13:11;;;;;;;12.50;10.67;;;28.80;86.50;;;29.71;50.91;95111.28;5045625;28;20447;-63
2022/07/29 07:15:39;;;;;;;12.73;8.30;;;28.90;85.80;;;29.91;50.19;95110.69;5045721;28;20512;-63
2022/07/29 07:18:06;;;;;;;6.40;5.37;;;29.10;84.50;;;30.05;48.10;95111.09;5043135;28;20463;-61
2022/07/29 07:20:34;;;;;;;6.10;4.50;;;29.30;81.30;;;30.07;47.97;95108.13;5045080;28;20196;-58
2022/07/29 07:23:02;;;;;;;11.30;5.03;;;29.40;79.10;;;30.11;47.27;95106.56;5045110;28;20217;-58
2022/07/29 07:25:30;;;;;;;6.50;4.40;;;29.50;77.10;;;30.22;46.45;95113.72;5046292;28;20259;-60
2022/07/29 07:27:57;;;;;;;4.83;3.83;;;29.60;75.70;;;30.38;46.28;95111.94;5043194;28;20534;-61
2022/07/29 07:30:24;;;;;;;5.40;4.90;;;29.70;74.70;;;30.51;46.41;95116.16;5045864;28;20205;-62
2022/07/29 07:32:52;;;;;;;6.13;4.80;;;29.90;73.40;;;30.64;44.92;95115.69;5043946;28;20278;-59
2022/07/29 07:35:19;;;;;;;4.67;4.23;;;29.90;70.50;;;30.64;44.82;95107.56;5046482;28;20201;-58
2022/07/29 07:37:46;;;;;;;5.70;4.07;;;30.00;70.20;;;30.69;44.29;95109.47;5045634;28;20233;-59
2022/07/29 07:40:15;;;;;;;5.00;4.60;;;30.00;69.70;;;30.81;43.92;95112.81;5045685;28;20197;-57
2022/07/29 07:42:42;;;;;;;5.40;4.50;;;30.10;69.30;;;30.89;44.89;95112.34;5045555;28;20890;-58
2022/07/29 07:45:11;;;;;;;5.63;3.90;;;30.20;68.60;;;31.01;43.49;95114.06;5042322;28;20225;-62
2022/07/29 07:47:39;;;;;;;6.47;4.17;;;30.30;67.70;;;31.02;43.66;95115.72;5045741;28;20228;-58
2022/07/29 07:50:08;;;;;;;5.33;4.83;;;30.30;66.20;;;31.04;43.46;95108.94;5045159;28;20209;-62
2022/07/29 07:52:35;;;;;;;6.50;4.20;;;30.40;65.40;;;31.13;43.07;95098.38;5045469;28;20586;-60
2022/07/29 07:55:03;;;;;;;4.67;4.13;;;30.50;65.20;;;31.30;43.00;95102.81;5045066;28;20209;-62
2022/07/29 07:57:31;;;;;;;7.20;4.00;;;30.60;65.10;;;31.45;42.98;95094.72;5045485;28;20220;-62
2022/07/29 07:59:58;;;;;;;4.50;4.10;;;30.70;64.30;;;31.64;42.81;95092.38;5045551;28;20209;-63
2022/07/29 08:02:26;;;;;;;7.90;4.60;;;30.90;64.00;;;31.80;41.83;95093.22;5045485;28;20228;-63
2022/07/29 08:04:53;;;;;;;4.93;4.50;;;31.00;63.20;;;31.99;42.21;95083.47;5046488;28;20667;-62
2022/07/29 08:07:20;;;;;;;11.88;4.15;;;31.20;62.70;;;32.17;41.05;95103.91;5046227;28;20232;-63
2022/07/29 08:09:47;;;;;;;9.88;3.72;;;31.40;61.10;;;32.14;40.96;95099.00;5045585;28;20401;-63
2022/07/29 08:12:15;;;;;;;4.73;4.37;;;31.40;60.20;;;32.11;40.91;95096.03;5046054;28;20227;-58
2022/07/29 08:14:43;;;;;;;5.72;3.80;;;31.40;59.90;;;32.17;40.90;95101.19;5045528;28;20208;-61
2022/07/29 08:17:11;;;;;;;7.90;3.67;;;31.50;59.70;;;32.33;39.52;95098.47;5044215;28;20270;-61
2022/07/29 08:19:38;;;;;;;6.07;5.28;;;31.60;57.70;;;32.41;40.13;95100.69;5043832;28;20209;-62
2022/07/29 08:22:05;;;;;;;5.10;4.60;;;31.70;58.70;;;32.42;40.41;95099.56;5045615;28;20228;-58
2022/07/29 08:24:51;;;;;;;4.78;4.47;;;31.80;58.30;;;32.49;40.53;95094.69;5045237;28;20713;-65
2022/07/29 08:27:20;;;;;;;4.63;4.22;;;31.80;58.60;;;32.61;39.42;95101.75;5043595;28;20224;-61
2022/07/29 08:29:48;;;;;;;6.80;4.40;;;31.90;56.90;;;32.71;39.71;95099.06;5044618;28;20292;-63
2022/07/29 08:32:15;;;;;;;6.93;4.20;;;32.00;57.30;;;32.90;39.67;95103.94;5040130;28;20282;-61
2022/07/29 08:34:45;;;;;;;3.97;3.75;;;32.20;57.30;;;33.02;39.28;95099.81;5044875;28;20254;-62
2022/07/29 08:37:13;;;;;;;12.80;4.32;;;32.30;57.00;;;33.09;38.60;95098.69;5045044;28;20229;-59
2022/07/29 08:39:41;;;;;;;7.47;3.80;;;32.40;55.80;;;33.09;38.58;95091.31;5044481;28;20319;-57
2022/07/29 08:42:09;;;;;;;5.47;4.72;;;32.50;55.40;;;33.13;38.57;95095.13;5045232;28;20229;-58
2022/07/29 08:44:37;;;;;;;4.18;3.92;;;32.50;55.40;;;33.26;38.39;95096.47;5040771;28;20314;-62
2022/07/29 08:47:06;;;;;;;3.75;3.45;;;32.60;55.10;;;33.49;37.90;95097.75;5040695;28;20221;-59
2022/07/29 08:49:35;;;;;;;4.57;4.18;;;32.80;54.90;;;33.72;38.17;95100.97;5044350;28;20231;-59
2022/07/29 08:52:03;;;;;;;3.78;3.58;;;33.00;54.30;;;33.91;37.80;95093.78;5044646;28;20248;-60
2022/07/29 08:54:30;;;;;;;8.93;4.18;;;33.20;54.00;;;34.03;37.45;95089.88;5044993;28;20205;-58
2022/07/29 08:56:57;;;;;;;4.07;3.75;;;33.30;53.40;;;34.08;37.67;95085.19;5044629;28;20225;-63
2022/07/29 08:59:26;;;;;;;4.53;4.13;;;33.40;53.00;;;34.21;37.60;95089.19;5045240;28;20243;-58
2022/07/29 09:01:54;;;;;;;4.80;4.40;;;33.50;53.00;;;34.35;36.35;95083.09;5043199;28;20308;-61
2022/07/29 09:04:23;;;;;;;12.40;3.35;;;33.60;52.30;;;34.42;36.45;95084.41;5044090;28;20449;-57
2022/07/29 09:06:52;;;;;;;4.20;3.90;;;33.80;52.60;;;34.58;35.60;95079.63;5046289;28;20664;-58
2022/07/29 09:09:19;;;;;;;3.63;3.42;;;33.80;51.40;;;34.66;35.66;95076.28;5047843;28;20312;-62
2022/07/29 09:11:47;;;;;;;4.97;3.40;;;33.90;50.90;;;34.69;36.18;95077.63;5047846;28;20217;-60
2022/07/29 09:14:14;;;;;;;4.47;4.07;;;34.00;50.70;;;34.63;35.75;95082.31;5047618;28;20229;-63
2022/07/29 09:16:46;;;;;;;5.45;4.38;;;34.00;49.70;;;34.51;35.03;95081.88;5047046;28;20266;-62
2022/07/29 09:19:26;;;;;;;3.55;3.25;;;33.90;50.10;;;34.53;35.58;95074.19;5047979;28;20274;-62
2022/07/29 09:22:00;;;;;;;5.18;3.10;;;33.90;50.10;;;34.55;34.90;95076.66;5045165;28;20313;-60
2022/07/29 09:24:43;;;;;;;4.72;2.92;;;33.90;50.10;;;34.64;35.52;95073.03;5048427;28;20592;-60
2022/07/29 09:27:21;;;;;;;3.78;3.47;;;34.00;49.70;;;34.86;34.96;95074.50;5044799;28;20601;-58
2022/07/29 09:29:57;;;;;;;2.97;2.85;;;34.10;49.40;;;35.01;34.01;95063.38;5047364;28;20196;-59
2022/07/29 09:32:24;;;;;;;8.48;3.45;;;34.30;49.20;;;35.04;34.78;95070.19;5043832;28;20225;-59
2022/07/29 09:34:55;;;;;;;8.40;4.30;;;34.30;49.00;;;35.07;34.65;95063.31;5046707;28;20458;-59
2022/07/29 09:37:29;;;;;;;4.75;4.07;;;34.30;49.00;;;35.18;33.71;95068.41;5047901;28;20286;-61
2022/07/29 09:39:56;;;;;;;7.13;3.22;;;34.40;48.30;;;35.24;34.69;95060.94;5044153;28;20274;-58
2022/07/29 09:42:29;;;;;;;5.40;3.85;;;34.50;48.00;;;35.24;33.99;95063.66;5047739;28;20228;-58
2022/07/29 09:44:56;;;;;;;6.25;3.70;;;34.50;47.90;;;35.21;33.83;95058.78;5043736;28;20301;-61
2022/07/29 09:47:25;;;;;;;9.38;3.63;;;34.50;48.00;;;35.18;33.90;95051.16;5046706;28;20290;-62
2022/07/29 09:49:57;;;;;;;5.80;3.67;;;34.50;47.50;;;35.15;34.14;95054.47;5046959;28;20748;-57
2022/07/29 09:52:25;;;;;;;4.78;3.58;;;34.40;47.90;;;35.12;33.27;95058.63;5046836;28;20225;-60
2022/07/29 09:54:53;;;;;;;6.70;3.50;;;34.30;46.40;;;34.95;32.47;95050.03;5047460;28;20270;-62
2022/07/29 09:57:26;;;;;;;3.92;3.22;;;34.30;46.10;;;34.88;33.49;95047.66;5047601;28;20224;-58
2022/07/29 10:00:01;;;;;;;4.28;3.58;;;34.20;46.60;;;34.91;32.02;95051.75;5047690;28;20205;-61
2022/07/29 10:02:30;;;;;;;7.07;3.33;;;34.20;46.10;;;35.06;33.57;95045.28;5045909;28;20231;-62
2022/07/29 10:04:59;;;;;;;5.47;3.50;;;34.30;46.50;;;35.21;33.06;95042.38;5046137;28;20235;-62
2022/07/29 10:07:27;;;;;;;4.18;3.88;;;34.40;45.90;;;35.34;32.36;95038.16;5046636;28;20228;-64
2022/07/29 10:09:56;;;;;;;9.52;4.15;;;34.60;45.70;;;35.44;32.85;95029.78;5046574;28;20209;-57
2022/07/29 10:12:24;;;;;;;4.15;3.85;;;34.60;45.50;;;35.47;32.42;95033.88;5046846;28;20225;-62
2022/07/29 10:14:51;;;;;;;5.15;3.97;;;34.70;45.20;;;35.41;32.29;95024.09;5046817;28;20212;-60
2022/07/29 10:17:19;;;;;;;3.88;3.53;;;34.70;45.50;;;35.32;32.82;95013.84;5043717;28;20286;-58